Time;durP1;ratioP1;P1;durP2;ratioP2;P2;SDS_P1;SDS_P2;PMS_P1;PMS_P2;Temp;Humidity;BMP_temperature;BMP_pressure;BME280_temperature;BME280_humidity;BME280_pressure;Samples;Min_cycle;Max_cycle;Signal;HPM_P1;HPM_P2
2022/12/25 00:01:06;;;;;;;11.65;5.57;;;;;;;10.07;62.03;100140.09;7819234;32;39927;-80
2022/12/25 00:05:24;;;;;;;13.82;6.35;;;;;;;9.85;62.39;100151.06;7820733;32;39924;-80
2022/12/25 00:09:40;;;;;;;15.30;5.35;;;;;;;9.63;62.40;100167.47;7820539;32;37532;-81
2022/12/25 00:13:57;;;;;;;83.07;29.63;;;;;;;9.83;61.15;100154.06;7820539;32;37044;-81
2022/12/25 00:18:13;;;;;;;44.35;16.17;;;;;;;9.67;61.39;100166.69;7820310;32;39139;-82
2022/12/25 00:22:29;;;;;;;13.00;6.57;;;;;;;9.50;61.52;100165.97;7820235;32;40818;-83
2022/12/25 00:26:46;;;;;;;15.27;7.35;;;;;;;9.37;62.40;100180.81;7820319;32;37979;-81
2022/12/25 00:31:11;;;;;;;14.80;6.95;;;;;;;9.30;62.91;100196.50;7819838;32;37779;-81
2022/12/25 00:35:27;;;;;;;28.58;12.88;;;;;;;9.45;61.80;100182.22;7820391;32;39212;-82
2022/12/25 00:39:43;;;;;;;25.10;11.00;;;;;;;9.44;61.76;100191.50;7820057;32;40702;-82
2022/12/25 00:44:00;;;;;;;16.33;9.63;;;;;;;9.34;61.72;100179.41;7820031;32;38018;-81
2022/12/25 00:48:16;;;;;;;21.15;10.30;;;;;;;9.24;62.16;100168.38;7819972;32;38238;-82
2022/12/25 00:52:32;;;;;;;17.15;8.40;;;;;;;9.26;62.08;100196.19;7820141;32;38890;-82
2022/12/25 00:56:48;;;;;;;17.75;9.05;;;;;;;9.11;63.69;100194.09;7820056;32;39975;-82
2022/12/25 01:01:05;;;;;;;21.67;11.75;;;;;;;9.13;63.21;100199.28;7819930;32;37904;-82
2022/12/25 01:05:21;;;;;;;18.00;7.95;;;;;;;9.37;61.92;100208.81;7819894;32;37851;-84
2022/12/25 01:14:12;;;;;;;15.48;8.50;;;;;;;9.18;61.79;100229.25;7819804;32;40890;-78
2022/12/25 01:18:29;;;;;;;17.05;8.45;;;;;;;9.42;61.64;100234.44;7819362;32;37936;-81
2022/12/25 01:22:45;;;;;;;18.17;10.10;;;;;;;9.01;62.83;100234.75;7819651;32;37728;-82
2022/12/25 01:27:01;;;;;;;12.90;6.30;;;;;;;9.25;62.13;100235.34;7819656;32;39019;-81
2022/12/25 01:31:20;;;;;;;10.57;6.05;;;;;;;9.34;62.06;100239.25;7819710;31;39415;-81
2022/12/25 01:35:39;;;;;;;13.23;6.65;;;;;;;9.23;62.92;100233.94;7818412;32;37839;-79
2022/12/25 01:39:55;;;;;;;9.00;5.22;;;;;;;9.26;62.62;100228.00;7819245;32;36781;-78
2022/12/25 01:44:14;;;;;;;11.27;5.37;;;;;;;9.11;63.34;100239.50;7819223;32;39335;-79
2022/12/25 01:48:35;;;;;;;10.48;5.60;;;;;;;9.16;63.51;100240.41;7819174;31;38348;-78
2022/12/25 01:52:52;;;;;;;12.35;5.03;;;;;;;9.07;64.02;100241.91;7819323;32;37964;-76
2022/12/25 01:57:13;;;;;;;12.68;6.62;;;;;;;9.15;63.78;100241.47;7819213;32;37832;-78
2022/12/25 02:01:29;;;;;;;13.93;6.12;;;;;;;8.98;63.64;100235.22;7819081;32;40042;-80
2022/12/25 02:05:46;;;;;;;9.45;4.97;;;;;;;9.16;62.93;100221.34;7817868;32;40968;-79
2022/12/25 02:10:03;;;;;;;13.55;5.82;;;;;;;9.23;62.77;100225.75;7818885;32;38704;-78
2022/12/25 02:14:20;;;;;;;9.93;5.50;;;;;;;9.15;62.91;100229.75;7818604;32;37833;-79
2022/12/25 02:18:56;;;;;;;10.52;5.22;;;;;;;9.25;62.22;100235.34;7818599;32;39062;-79
2022/12/25 02:23:49;;;;;;;9.77;4.90;;;;;;;8.96;63.10;100240.91;7817531;32;40063;-79
2022/12/25 02:28:20;;;;;;;11.00;5.07;;;;;;;9.13;62.32;100235.44;7817518;32;37827;-80
2022/12/25 02:32:52;;;;;;;8.43;5.07;;;;;;;9.09;62.14;100242.47;7817471;32;37027;-80
2022/12/25 02:37:18;;;;;;;11.12;4.55;;;;;;;9.16;62.69;100247.75;7816861;32;39319;-81
2022/12/25 02:41:37;;;;;;;11.45;4.82;;;;;;;9.24;62.35;100255.44;7816951;32;40142;-81
2022/12/25 03:18:41;;;;;;;8.88;4.12;;;;;;;9.09;61.71;100287.87;7821047;32;40884;-81
2022/12/25 03:27:33;;;;;;;7.93;4.15;;;;;;;9.03;61.00;100301.41;7821333;32;37020;-82
2022/12/25 03:31:56;;;;;;;9.32;4.43;;;;;;;8.78;60.35;100306.47;7819891;32;39454;-82
2022/12/25 03:36:22;;;;;;;8.52;4.68;;;;;;;8.64;60.50;100306.78;7819936;32;40955;-82
2022/12/25 04:36:55;;;;;;;11.30;6.03;;;;;;;8.70;61.52;100298.72;7807303;31;37860;-80
2022/12/25 04:41:12;;;;;;;15.27;6.03;;;;;;;8.73;60.67;100303.66;7820237;32;37809;-79
2022/12/25 04:45:28;;;;;;;13.77;6.82;;;;;;;8.78;61.27;100326.31;7820289;32;39973;-79
2022/12/25 04:49:45;;;;;;;10.43;5.50;;;;;;;8.69;61.78;100316.88;7820281;32;40899;-79
2022/12/25 04:54:01;;;;;;;9.02;4.93;;;;;;;8.51;61.91;100328.00;7820045;32;37950;-79
2022/12/25 04:58:17;;;;;;;10.70;5.00;;;;;;;8.42;61.80;100330.28;7820133;32;36991;-79
2022/12/25 05:02:34;;;;;;;12.15;5.95;;;;;;;8.13;63.06;100338.44;7819983;32;40114;-79
2022/12/25 05:06:50;;;;;;;8.75;5.07;;;;;;;8.32;62.70;100325.47;7819670;32;40580;-80
2022/12/25 05:11:11;;;;;;;8.45;4.78;;;;;;;8.36;63.12;100331.25;7819590;32;38724;-81
2022/12/25 05:15:28;;;;;;;10.73;5.37;;;;;;;8.73;62.33;100328.13;7819913;32;37041;-80
2022/12/25 05:19:44;;;;;;;10.68;5.37;;;;;;;8.55;62.78;100329.97;7819718;32;39014;-81
2022/12/25 05:24:00;;;;;;;12.05;5.03;;;;;;;8.75;62.32;100336.84;7818748;32;39724;-81
2022/12/25 05:28:17;;;;;;;10.30;5.00;;;;;;;8.74;62.25;100338.72;7819597;32;38777;-82
2022/12/25 05:32:33;;;;;;;12.02;4.93;;;;;;;8.47;62.93;100344.00;7818423;32;37726;-81
2022/12/25 05:36:49;;;;;;;12.40;5.20;;;;;;;8.48;62.10;100340.19;7819500;32;40066;-80
2022/12/25 05:41:06;;;;;;;11.43;5.00;;;;;;;8.39;62.02;100337.00;7818885;32;39978;-82
2022/12/25 05:45:22;;;;;;;12.05;5.03;;;;;;;8.18;62.38;100356.72;7819024;32;37555;-79
2022/12/25 05:49:38;;;;;;;9.85;4.82;;;;;;;7.95;61.19;100368.47;7819620;32;37496;-77
2022/12/25 05:53:55;;;;;;;14.32;5.68;;;;;;;7.76;60.68;100365.94;7819358;32;39296;-77
2022/12/25 05:58:12;;;;;;;14.50;5.07;;;;;;;7.78;61.21;100366.50;7819191;32;39900;-81
2022/12/25 06:02:28;;;;;;;8.80;4.70;;;;;;;7.50;61.95;100376.22;7819036;32;37609;-80
2022/12/25 06:06:45;;;;;;;11.60;5.22;;;;;;;7.40;61.73;100372.44;7824429;31;37781;-79
2022/12/25 06:11:05;;;;;;;12.35;5.10;;;;;;;7.31;61.96;100370.09;7840299;31;39443;-80
2022/12/25 06:15:21;;;;;;;13.88;5.30;;;;;;;7.43;61.97;100358.41;7818857;32;40759;-80
2022/12/25 06:19:38;;;;;;;14.48;5.60;;;;;;;7.79;61.15;100370.88;7818477;32;37905;-79
2022/12/25 06:23:54;;;;;;;13.30;6.65;;;;;;;7.87;61.42;100365.06;7818873;31;36774;-80
2022/12/25 06:28:10;;;;;;;14.80;6.60;;;;;;;7.79;62.32;100370.88;7832254;31;38915;-79
2022/12/25 06:32:27;;;;;;;10.00;5.57;;;;;;;7.50;63.59;100368.09;7843685;31;40118;-81
2022/12/25 06:36:43;;;;;;;12.70;5.18;;;;;;;7.71;63.07;100369.34;7822395;31;38586;-80
2022/12/25 06:41:20;;;;;;;10.00;5.20;;;;;;;7.69;62.58;100376.91;7835502;31;37709;-81
2022/12/25 06:45:37;;;;;;;9.00;4.57;;;;;;;7.69;61.94;100376.91;7849258;31;39309;-82
2022/12/25 06:49:53;;;;;;;9.70;4.93;;;;;;;7.67;61.76;100375.50;7844156;31;40861;-85
2022/12/25 06:54:09;;;;;;;11.27;5.78;;;;;;;7.57;61.82;100386.13;7821527;32;37922;-83
2022/12/25 06:58:27;;;;;;;12.88;5.80;;;;;;;7.50;62.82;100400.66;7821476;32;37790;-83
2022/12/25 07:02:46;;;;;;;10.43;5.12;;;;;;;7.61;62.52;100411.72;7821500;32;40028;-85
2022/12/25 07:07:03;;;;;;;12.85;5.20;;;;;;;7.47;63.56;100417.41;7821575;32;40658;-81
2022/12/25 07:11:24;;;;;;;11.15;5.40;;;;;;;7.50;63.56;100421.50;7821934;31;35735;-80
2022/12/25 07:15:41;;;;;;;11.52;4.97;;;;;;;7.61;63.36;100417.16;7822237;31;37137;-81
2022/12/25 07:19:57;;;;;;;9.85;5.12;;;;;;;7.55;63.32;100428.94;7821345;32;39917;-83
2022/12/25 07:24:19;;;;;;;11.35;5.65;;;;;;;7.42;63.11;100447.13;7821100;31;39856;-83
2022/12/25 07:28:35;;;;;;;10.10;5.75;;;;;;;7.27;64.01;100450.28;7821203;32;37825;-81
2022/12/25 07:32:51;;;;;;;13.02;5.80;;;;;;;7.48;64.49;100448.06;7821159;32;36950;-81
2022/12/25 07:37:08;;;;;;;9.20;5.78;;;;;;;7.94;68.29;100451.81;7821057;32;39262;-82
2022/12/25 07:41:24;;;;;;;10.77;5.47;;;;;;;8.23;65.60;100449.19;7832629;31;39846;-76
2022/12/25 07:45:40;;;;;;;12.85;6.15;;;;;;;8.12;66.53;100450.00;7836704;31;37541;-76
2022/12/25 07:49:57;;;;;;;11.68;6.10;;;;;;;8.15;65.58;100461.22;7820830;32;36975;-84
2022/12/25 07:54:13;;;;;;;13.90;6.97;;;;;;;8.25;64.35;100460.63;7821853;32;39938;-85
2022/12/25 07:58:30;;;;;;;17.48;8.60;;;;;;;8.63;64.04;100465.47;7825899;31;40224;-84
2022/12/25 08:02:49;;;;;;;14.48;7.12;;;;;;;8.88;63.22;100464.31;7849632;31;38808;-83
2022/12/25 08:07:06;;;;;;;12.48;5.55;;;;;;;9.05;62.96;100469.78;7827515;31;37115;-82
2022/12/25 08:11:22;;;;;;;13.62;6.35;;;;;;;9.54;61.60;100472.78;7825653;32;39218;-83
2022/12/25 08:15:39;;;;;;;10.90;5.47;;;;;;;9.37;61.66;100467.34;7822694;31;40612;-82
2022/12/25 08:19:55;;;;;;;12.52;5.47;;;;;;;9.61;61.03;100471.78;7848211;31;37851;-84
2022/12/25 08:24:11;;;;;;;17.08;6.70;;;;;;;9.36;62.86;100482.00;7846796;31;38052;-83
2022/12/25 08:28:29;;;;;;;9.80;5.05;;;;;;;9.20;62.74;100478.22;7847404;31;39356;-85
2022/12/25 08:32:45;;;;;;;10.85;5.90;;;;;;;9.55;62.19;100479.03;7847702;31;39919;-85
2022/12/25 08:37:01;;;;;;;22.98;13.50;;;;;;;9.69;61.66;100480.38;7839927;31;37825;-83
2022/12/25 08:41:18;;;;;;;23.87;12.90;;;;;;;9.79;61.75;100479.69;7820122;32;37341;-85
2022/12/25 08:45:34;;;;;;;20.08;11.90;;;;;;;9.77;61.92;100482.66;7820087;32;39238;-84
2022/12/25 08:49:50;;;;;;;19.35;10.13;;;;;;;9.81;61.87;100482.97;7820051;32;39895;-84
2022/12/25 08:54:07;;;;;;;20.08;8.70;;;;;;;9.99;61.70;100490.06;7819928;32;38064;-83
2022/12/25 08:58:24;;;;;;;15.45;8.90;;;;;;;10.18;61.47;100492.50;7818815;32;37835;-84
2022/12/25 09:02:41;;;;;;;14.48;7.97;;;;;;;10.30;61.58;100494.03;7820091;32;39937;-81
2022/12/25 09:06:58;;;;;;;14.20;7.80;;;;;;;10.55;60.84;100486.44;7819688;31;39901;-84
2022/12/25 09:11:15;;;;;;;13.55;6.80;;;;;;;11.23;60.31;100482.25;7819674;32;38869;-80
2022/12/25 09:15:31;;;;;;;18.95;8.20;;;;;;;11.71;58.81;100482.38;7819647;31;37831;-81
2022/12/25 09:19:47;;;;;;;15.15;6.95;;;;;;;12.21;56.46;100480.22;7819557;32;40001;-80
2022/12/25 09:24:04;;;;;;;9.82;5.18;;;;;;;12.38;55.44;100483.59;7821479;32;39963;-82
2022/12/25 09:28:21;;;;;;;10.00;4.82;;;;;;;12.57;53.16;100475.75;7835867;31;38930;-76
2022/12/25 09:32:39;;;;;;;22.20;12.80;;;;;;;12.87;53.75;100465.16;7834767;31;37998;-84
2022/12/25 09:36:55;;;;;;;22.65;12.27;;;;;;;12.97;51.29;100465.16;7827067;31;39467;-84
2022/12/25 09:41:35;;;;;;;22.87;10.32;;;;;;;11.96;52.74;100480.91;7847840;31;40918;-83
2022/12/25 09:45:52;;;;;;;15.57;9.05;;;;;;;12.19;53.07;100475.03;7848122;31;38190;-80
2022/12/25 09:50:27;;;;;;;20.65;10.27;;;;;;;12.30;52.86;100478.63;7848305;31;36671;-84
2022/12/25 09:54:44;;;;;;;18.77;9.20;;;;;;;12.42;53.24;100477.56;7845197;31;39326;-83
2022/12/25 09:59:00;;;;;;;13.95;8.70;;;;;;;13.09;53.44;100471.19;7846814;31;39643;-83
2022/12/25 10:03:44;;;;;;;18.77;9.60;;;;;;;13.23;52.02;100473.38;7845829;31;38068;-81
2022/12/25 10:08:04;;;;;;;18.08;9.70;;;;;;;13.45;50.33;100475.88;7846244;31;37894;-85
2022/12/25 10:12:44;;;;;;;18.25;8.98;;;;;;;13.46;50.57;100480.28;7833546;31;40384;-84
2022/12/25 10:17:32;;;;;;;16.58;8.93;;;;;;;13.64;49.88;100481.63;7836130;31;250175;-84
2022/12/25 10:21:51;;;;;;;18.20;9.48;;;;;;;13.78;49.43;100473.66;7846257;31;37667;-85
2022/12/25 10:26:19;;;;;;;15.73;8.75;;;;;;;13.55;49.84;100469.59;7845093;31;36965;-85
2022/12/25 10:30:35;;;;;;;19.73;8.15;;;;;;;14.24;49.64;100455.19;7846051;31;40061;-86
2022/12/25 10:34:52;;;;;;;16.77;8.55;;;;;;;14.87;50.07;100459.31;7845873;31;39952;-84
2022/12/25 10:39:16;;;;;;;18.15;8.93;;;;;;;15.26;46.69;100447.47;7844538;31;37951;-84
2022/12/25 10:43:47;;;;;;;15.07;7.15;;;;;;;15.39;46.20;100457.00;7827316;31;37078;-85
2022/12/25 10:48:05;;;;;;;12.77;6.62;;;;;;;15.58;46.09;100454.34;7826763;31;39985;-84
2022/12/25 10:52:26;;;;;;;15.80;6.22;;;;;;;15.68;45.72;100458.94;7834674;31;40893;-82
2022/12/25 10:57:01;;;;;;;14.90;7.62;;;;;;;16.36;44.86;100454.37;7825224;31;38651;-82
2022/12/25 11:01:18;;;;;;;14.87;6.68;;;;;;;16.63;43.73;100446.31;7817712;32;37817;-82
2022/12/25 11:05:35;;;;;;;12.18;5.93;;;;;;;16.84;43.95;100444.09;7817636;32;38969;-80
2022/12/25 11:09:58;;;;;;;12.27;5.93;;;;;;;17.00;43.13;100428.16;7815984;32;40016;-83
2022/12/25 11:14:21;;;;;;;13.60;5.95;;;;;;;17.80;41.11;100425.44;7838906;31;38786;-82
2022/12/25 11:18:50;;;;;;;9.95;4.70;;;;;;;18.07;41.23;100424.66;7830976;31;37917;-85
2022/12/25 11:23:10;;;;;;;12.43;6.18;;;;;;;18.43;39.60;100420.34;7824995;31;39338;-86
2022/12/25 11:27:29;;;;;;;15.02;6.15;;;;;;;18.51;38.72;100414.09;7832177;31;39596;-82
2022/12/25 11:31:46;;;;;;;13.45;6.07;;;;;;;18.75;39.64;100409.13;7819360;32;38051;-84
2022/12/25 11:36:11;;;;;;;14.10;5.55;;;;;;;18.90;38.59;100415.44;7819818;32;37529;-73
2022/12/25 11:40:48;;;;;;;13.23;6.35;;;;;;;18.26;41.48;100409.94;7820748;32;39244;-83
2022/12/25 11:45:06;;;;;;;12.77;5.50;;;;;;;18.33;39.19;100413.09;7819793;32;39878;-81
2022/12/25 11:49:23;;;;;;;12.65;6.28;;;;;;;18.82;38.23;100405.12;7821727;31;39620;-80
2022/12/25 11:53:47;;;;;;;13.05;6.07;;;;;;;18.84;37.74;100395.41;7820770;32;37056;-79
2022/12/25 11:58:16;;;;;;;14.30;5.70;;;;;;;18.47;38.69;100393.75;7822317;31;39004;-80
2022/12/25 12:02:51;;;;;;;10.15;5.22;;;;;;;18.88;38.18;100395.59;7836469;31;40985;-84
2022/12/25 12:07:19;;;;;;;12.73;5.95;;;;;;;18.92;37.81;100397.44;7831260;31;38070;-83
2022/12/25 12:11:40;;;;;;;12.52;6.72;;;;;;;18.72;37.80;100387.62;7826898;31;37747;-85
2022/12/25 12:15:57;;;;;;;18.27;5.90;;;;;;;18.65;37.95;100386.44;7823836;31;39230;-84
2022/12/25 12:20:30;;;;;;;10.60;5.00;;;;;;;18.84;37.32;100400.94;7826148;31;39865;-85
2022/12/25 12:24:51;;;;;;;;;;;;;;;19.31;37.91;100389.56;7828814;31;37995;-84
2022/12/25 12:29:24;;;;;;;13.02;5.87;;;;;;;18.85;36.82;100393.44;7834865;31;37490;-85
2022/12/25 12:33:52;;;;;;;9.95;4.75;;;;;;;18.36;38.60;100388.44;7823629;31;39959;-83
2022/12/25 12:38:19;;;;;;;11.70;4.00;;;;;;;17.73;38.73;100386.41;7831905;31;40881;-83
2022/12/25 12:42:42;;;;;;;8.38;3.60;;;;;;;17.58;39.17;100382.81;7821990;31;37924;-82
2022/12/25 12:46:58;;;;;;;12.02;4.25;;;;;;;17.50;39.55;100377.19;7820874;31;37460;-81
2022/12/25 12:51:37;;;;;;;14.20;5.00;;;;;;;17.86;39.24;100377.34;7819066;32;40241;-81
2022/12/25 12:55:54;;;;;;;10.02;4.50;;;;;;;17.66;39.44;100389.59;7820118;32;39893;-81
2022/12/25 13:00:20;;;;;;;13.07;5.10;;;;;;;17.41;40.64;100388.09;7820024;32;38466;-81
2022/12/25 13:04:48;;;;;;;9.93;4.95;;;;;;;16.49;42.75;100402.19;7839813;31;37722;-82
2022/12/25 13:09:19;;;;;;;12.48;5.70;;;;;;;16.43;42.78;100397.84;7828492;31;39220;-82
2022/12/25 13:13:38;;;;;;;15.50;5.68;;;;;;;16.41;43.42;100389.09;7822841;31;39839;-81
2022/12/25 13:17:59;;;;;;;9.13;4.30;;;;;;;16.11;43.84;100390.31;7847106;31;38777;-82
2022/12/25 13:22:35;;;;;;;10.52;4.78;;;;;;;15.79;44.02;100396.47;7847236;31;37689;-81
2022/12/25 13:26:54;;;;;;;10.25;4.87;;;;;;;15.80;43.86;100403.59;7846348;31;40156;-80
2022/12/25 13:31:25;;;;;;;10.75;5.40;;;;;;;15.73;44.23;100402.00;7847146;31;40146;-81
2022/12/25 13:35:44;;;;;;;12.20;4.95;;;;;;;16.00;43.83;100406.09;7847138;31;37957;-81
2022/12/25 13:40:06;;;;;;;11.60;4.93;;;;;;;15.89;45.83;100394.41;7846851;31;37223;-81
2022/12/25 13:44:25;;;;;;;9.05;4.30;;;;;;;16.37;47.42;100398.22;7825447;31;39715;-81
2022/12/25 13:48:41;;;;;;;10.52;4.25;;;;;;;21.41;33.87;100384.44;7819450;32;40715;-82
2022/12/25 13:53:11;;;;;;;9.48;4.03;;;;;;;24.53;28.62;100370.84;7819219;32;38273;-82
2022/12/25 13:57:38;;;;;;;12.55;4.22;;;;;;;26.73;25.20;100360.56;7819266;32;36924;-82
2022/12/25 14:01:56;;;;;;;6.93;3.10;;;;;;;28.60;22.24;100362.97;7818105;32;40041;-80
2022/12/25 14:06:20;;;;;;;9.35;3.90;;;;;;;29.60;20.73;100346.41;7819171;32;38991;-82
2022/12/25 14:10:38;;;;;;;9.45;3.00;;;;;;;30.10;20.06;100340.38;7817717;32;38499;-82
2022/12/25 14:14:55;;;;;;;9.77;3.87;;;;;;;29.33;20.59;100348.56;7818978;32;36666;-82
2022/12/25 14:19:27;;;;;;;9.00;3.25;;;;;;;27.37;23.03;100359.41;7818649;32;39324;-82
2022/12/25 14:23:48;;;;;;;10.93;3.45;;;;;;;24.99;25.80;100381.78;7818563;32;40795;-83
2022/12/25 14:28:07;;;;;;;8.77;3.85;;;;;;;22.83;28.44;100394.13;7817336;32;37969;-81
2022/12/25 14:32:27;;;;;;;9.30;4.03;;;;;;;21.13;31.84;100413.34;7817279;32;37842;-81
2022/12/25 14:36:43;;;;;;;16.08;6.55;;;;;;;19.39;35.03;100421.97;7817392;32;39237;-83
2022/12/25 14:41:06;;;;;;;11.60;5.95;;;;;;;18.82;36.64;100413.41;7818512;32;40001;-81
2022/12/25 14:45:32;;;;;;;13.40;5.43;;;;;;;17.94;39.28;100417.22;7818962;32;37986;-79
2022/12/25 14:49:48;;;;;;;10.75;4.53;;;;;;;17.31;40.26;100421.34;7818389;32;37789;-81
2022/12/25 14:54:14;;;;;;;12.70;5.20;;;;;;;16.71;41.68;100420.03;7818449;32;39880;-81
2022/12/25 14:58:33;;;;;;;9.63;4.82;;;;;;;16.59;42.06;100411.41;7821581;32;39757;-81
2022/12/25 15:02:51;;;;;;;14.65;5.37;;;;;;;16.20;42.64;100429.00;7821489;32;37999;-82
2022/12/25 15:07:29;;;;;;;12.98;5.35;;;;;;;15.80;43.79;100423.66;7807577;32;36396;-81
2022/12/25 15:11:50;;;;;;;12.65;4.95;;;;;;;15.94;43.44;100429.28;7820248;31;39325;-81
2022/12/25 15:16:12;;;;;;;14.38;4.55;;;;;;;15.95;43.41;100433.66;7820281;32;40489;-82
2022/12/25 15:20:33;;;;;;;13.50;5.95;;;;;;;15.48;42.89;100429.72;7807451;32;38103;-84
2022/12/25 15:24:50;;;;;;;16.85;5.53;;;;;;;14.99;45.77;100426.81;7821652;32;37850;-84
2022/12/25 15:29:13;;;;;;;9.98;5.20;;;;;;;15.06;45.54;100431.19;7821982;32;39236;-82
2022/12/25 15:33:30;;;;;;;14.07;5.93;;;;;;;14.99;46.06;100437.81;7821290;32;40871;-84
2022/12/25 15:37:46;;;;;;;19.52;9.30;;;;;;;14.69;47.28;100438.00;7820905;32;38047;-85
2022/12/25 15:42:12;;;;;;;17.73;8.63;;;;;;;14.19;48.13;100441.47;7819811;32;37915;-83
2022/12/25 15:46:28;;;;;;;19.08;8.88;;;;;;;14.27;47.93;100437.34;7821443;31;39770;-81
2022/12/25 15:50:45;;;;;;;16.15;7.70;;;;;;;13.87;48.97;100436.41;7822518;31;39986;-82
2022/12/25 15:55:02;;;;;;;13.05;5.80;;;;;;;13.93;49.35;100432.53;7827213;31;38645;-83
2022/12/25 15:59:20;;;;;;;15.18;6.35;;;;;;;13.80;50.33;100439.44;7834501;31;37539;-85
2022/12/25 16:03:36;;;;;;;12.63;6.32;;;;;;;14.01;49.33;100434.69;7835656;31;40606;-83
2022/12/25 16:07:52;;;;;;;11.88;6.15;;;;;;;13.69;50.56;100421.34;7835461;31;39679;-87
2022/12/25 16:12:09;;;;;;;16.05;6.90;;;;;;;13.97;49.90;100427.31;7839154;31;37790;-83
2022/12/25 16:16:25;;;;;;;11.85;5.65;;;;;;;13.65;50.63;100421.09;7838974;31;37141;-84
2022/12/25 16:20:42;;;;;;;15.93;6.68;;;;;;;13.55;50.53;100423.03;7838082;31;39788;-86
2022/12/25 16:24:59;;;;;;;15.95;6.82;;;;;;;13.87;50.20;100422.69;7847400;31;40568;-86
2022/12/25 16:29:15;;;;;;;18.75;6.80;;;;;;;13.85;50.38;100422.97;7847018;31;38241;-84
2022/12/25 16:33:31;;;;;;;17.17;7.10;;;;;;;13.65;50.79;100418.34;7844897;31;37107;-87
2022/12/25 16:37:48;;;;;;;15.30;7.57;;;;;;;13.39;51.43;100428.53;7847431;31;40027;-83
2022/12/25 16:42:04;;;;;;;16.77;7.75;;;;;;;13.67;50.81;100409.84;7846255;31;40569;-85
2022/12/25 16:46:22;;;;;;;20.08;9.13;;;;;;;13.48;51.30;100417.81;7844304;31;38197;-83
2022/12/25 16:50:39;;;;;;;16.02;8.18;;;;;;;13.31;52.02;100418.97;7846176;31;37993;-84
2022/12/25 16:54:56;;;;;;;19.08;9.25;;;;;;;13.23;52.33;100419.47;7846118;31;39522;-82
2022/12/25 16:59:12;;;;;;;21.05;9.20;;;;;;;13.07;53.07;100417.81;7844329;31;41212;-84
2022/12/25 17:03:32;;;;;;;16.60;9.77;;;;;;;13.16;52.72;100410.72;7840908;31;37530;-84
2022/12/25 17:07:51;;;;;;;20.07;9.80;;;;;;;12.94;53.22;100402.75;7842920;31;37221;-84
2022/12/25 17:12:07;;;;;;;20.60;9.10;;;;;;;12.78;53.87;100408.22;7845842;31;40222;-83
2022/12/25 17:16:27;;;;;;;18.92;9.45;;;;;;;12.78;53.95;100419.16;7844331;31;40839;-83
2022/12/25 17:20:52;;;;;;;19.60;9.10;;;;;;;12.83;53.87;100418.34;7841950;31;38473;-82
2022/12/25 17:25:10;;;;;;;18.92;9.20;;;;;;;12.75;54.20;100411.50;7844140;31;36702;-83
2022/12/25 17:29:26;;;;;;;17.35;9.38;;;;;;;12.69;54.18;100409.81;7846108;31;39950;-82
2022/12/25 17:33:43;;;;;;;15.90;8.68;;;;;;;12.68;54.16;100390.97;7840368;31;40582;-82
2022/12/25 17:37:59;;;;;;;20.95;8.95;;;;;;;12.71;54.18;100385.78;7836035;31;37223;-84
2022/12/25 17:42:20;;;;;;;24.08;9.93;;;;;;;12.61;54.34;100380.28;7843717;31;37119;-81
2022/12/25 17:46:40;;;;;;;22.42;10.27;;;;;;;12.44;55.02;100386.00;7836912;31;39253;-81
2022/12/25 17:51:04;;;;;;;15.23;7.85;;;;;;;12.40;54.89;100384.91;7841424;31;37754;-84
2022/12/25 17:55:22;;;;;;;17.15;8.00;;;;;;;12.42;54.72;100390.06;7844632;31;38118;-83
2022/12/25 17:59:39;;;;;;;18.33;8.00;;;;;;;12.37;54.89;100408.12;7837936;31;36986;-86
2022/12/25 18:03:57;;;;;;;20.77;8.90;;;;;;;12.57;54.51;100395.56;7843320;31;37966;-82
2022/12/25 18:08:14;;;;;;;16.42;7.15;;;;;;;12.52;54.70;100399.16;7843737;31;41648;-81
2022/12/25 18:12:30;;;;;;;19.08;8.55;;;;;;;12.54;54.31;100396.16;7846521;31;38916;-82
2022/12/25 18:16:47;;;;;;;17.05;8.07;;;;;;;12.53;54.47;100406.25;7846519;31;37231;-82
2022/12/25 18:21:04;;;;;;;13.50;7.50;;;;;;;12.39;54.63;100395.00;7846452;31;39211;-83
2022/12/25 18:25:20;;;;;;;16.33;8.57;;;;;;;12.20;55.46;100388.38;7846167;31;40714;-82
2022/12/25 18:29:36;;;;;;;20.92;9.02;;;;;;;12.07;55.13;100394.31;7845777;31;37698;-81
2022/12/25 18:33:53;;;;;;;20.37;8.60;;;;;;;12.11;55.10;100404.47;7846040;31;37049;-77
2022/12/25 18:38:10;;;;;;;19.42;8.02;;;;;;;11.85;56.00;100389.84;7835258;31;39335;-83
2022/12/25 18:42:39;;;;;;;18.90;9.05;;;;;;;11.81;56.08;100383.25;7818409;32;40598;-82
2022/12/25 18:46:57;;;;;;;14.48;8.07;;;;;;;11.76;56.34;100385.94;7821147;31;37923;-84
2022/12/25 18:51:15;;;;;;;17.98;9.32;;;;;;;11.44;57.26;100384.12;7827230;31;36967;-81
2022/12/25 18:55:32;;;;;;;19.52;8.90;;;;;;;11.61;57.01;100382.06;7844737;31;39143;-83
2022/12/25 18:59:52;;;;;;;18.62;8.23;;;;;;;11.70;56.89;100368.72;7844311;31;40073;-82
2022/12/25 19:04:11;;;;;;;19.70;8.63;;;;;;;11.35;58.08;100374.78;7842478;31;37775;-84
2022/12/25 19:08:27;;;;;;;18.75;9.73;;;;;;;11.37;58.05;100364.44;7842448;31;36975;-83
2022/12/25 19:12:44;;;;;;;19.55;10.10;;;;;;;11.52;57.80;100372.72;7843933;31;39417;-83
2022/12/25 19:17:00;;;;;;;20.35;10.30;;;;;;;11.50;57.96;100365.87;7843695;31;39944;-82
2022/12/25 19:21:16;;;;;;;18.02;9.75;;;;;;;11.24;58.87;100365.69;7843596;31;37631;-82
2022/12/25 19:25:33;;;;;;;19.90;10.25;;;;;;;11.23;59.04;100362.16;7843466;31;37710;-80
2022/12/25 19:29:49;;;;;;;19.73;9.80;;;;;;;11.33;58.98;100368.75;7842529;31;39967;-81
2022/12/25 19:34:05;;;;;;;22.90;10.18;;;;;;;11.39;58.89;100384.91;7839046;31;39902;-83
2022/12/25 19:38:21;;;;;;;24.30;11.48;;;;;;;11.53;58.60;100357.97;7840126;31;38105;-82
2022/12/25 19:42:40;;;;;;;20.27;9.57;;;;;;;11.34;64.38;100343.13;7841586;31;37063;-82
2022/12/25 19:46:57;;;;;;;18.20;9.05;;;;;;;11.52;58.94;100326.31;7841177;31;39169;-83
2022/12/25 19:51:27;;;;;;;19.92;9.95;;;;;;;11.45;58.67;100337.47;7839566;31;40167;-81
2022/12/25 19:55:44;;;;;;;16.27;9.65;;;;;;;11.40;58.99;100325.66;7847155;31;38891;-82
2022/12/25 20:00:01;;;;;;;19.65;9.32;;;;;;;11.08;60.15;100315.66;7837815;31;36836;-81
2022/12/25 20:04:17;;;;;;;18.42;8.55;;;;;;;11.12;59.27;100294.94;7846990;31;38907;-83
2022/12/25 20:08:34;;;;;;;20.15;8.75;;;;;;;11.01;59.88;100301.44;7839040;31;39941;-82
2022/12/25 20:12:53;;;;;;;15.57;8.70;;;;;;;11.08;59.67;100300.09;7837244;31;37876;-82
2022/12/25 20:17:09;;;;;;;15.40;8.73;;;;;;;10.87;60.51;100320.97;7837149;31;37922;-83
2022/12/25 20:21:31;;;;;;;22.90;10.25;;;;;;;11.12;59.42;100321.41;7837670;31;39997;-83
2022/12/25 20:25:49;;;;;;;21.00;9.70;;;;;;;11.27;59.37;100311.41;7838805;31;39875;-84
2022/12/25 20:30:09;;;;;;;19.50;10.02;;;;;;;11.18;59.67;100318.47;7846840;31;37583;-83
2022/12/25 20:34:30;;;;;;;21.20;9.90;;;;;;;11.12;59.97;100319.50;7836588;31;36561;-82
2022/12/25 20:38:48;;;;;;;18.60;9.82;;;;;;;11.10;60.07;100321.66;7844136;31;39451;-83
2022/12/25 20:43:04;;;;;;;19.35;11.00;;;;;;;10.98;60.49;100321.84;7839948;31;39878;-82
2022/12/25 20:47:20;;;;;;;20.27;10.27;;;;;;;10.94;60.58;100320.75;7844790;31;37896;-82
2022/12/25 20:51:38;;;;;;;18.05;9.63;;;;;;;10.82;61.02;100323.66;7845132;31;37177;-82
2022/12/25 20:56:00;;;;;;;20.27;11.18;;;;;;;10.84;60.97;100326.94;7843753;31;39040;-82
2022/12/25 21:00:16;;;;;;;22.98;10.90;;;;;;;10.73;61.11;100330.69;7843782;31;39901;-80
2022/12/25 21:04:32;;;;;;;18.23;8.80;;;;;;;10.82;61.12;100328.28;7843235;31;37780;-83
2022/12/25 21:08:49;;;;;;;20.15;10.35;;;;;;;10.81;61.10;100329.34;7844719;31;37019;-82
2022/12/25 21:13:05;;;;;;;20.00;10.07;;;;;;;10.76;61.31;100313.75;7844989;31;39253;-81
2022/12/25 21:17:21;;;;;;;19.17;9.90;;;;;;;10.67;61.37;100299.78;7845920;31;40040;-84
2022/12/25 21:21:42;;;;;;;15.90;9.45;;;;;;;10.66;61.81;100313.72;7841818;31;38097;-83
2022/12/25 21:25:58;;;;;;;18.23;9.90;;;;;;;10.75;61.52;100320.31;7843636;31;36642;-79
2022/12/25 21:30:14;;;;;;;19.50;9.38;;;;;;;10.86;60.95;100304.84;7826852;31;40066;-82
2022/12/25 21:34:31;;;;;;;15.98;9.15;;;;;;;10.80;61.08;100322.28;7819458;31;40069;-79